createdAt,value
2019-01-11T00:00:00.750Z,3.37
2019-01-11T00:00:41.325Z,3.41
2019-01-11T00:01:21.919Z,3.34
2019-01-11T00:02:02.469Z,3.47
2019-01-11T00:02:43.013Z,3.36
2019-01-11T00:03:23.585Z,3.4
2019-01-11T00:04:04.133Z,3.41
2019-01-11T00:04:44.669Z,3.4
2019-01-11T00:05:25.220Z,3.41
2019-01-11T00:06:05.796Z,3.36
2019-01-11T00:06:46.342Z,3.47
2019-01-11T00:07:26.908Z,3.4
2019-01-11T00:08:07.460Z,3.41
2019-01-11T00:08:48.031Z,3.34
2019-01-11T00:09:28.583Z,3.44
2019-01-11T00:10:09.163Z,3.34
2019-01-11T00:10:49.749Z,3.37
2019-01-11T00:11:30.333Z,3.37
2019-01-11T00:12:10.915Z,3.37
2019-01-11T00:12:51.491Z,3.36
2019-01-11T00:13:32.045Z,3.34
2019-01-11T00:14:12.594Z,3.32
2019-01-11T00:14:53.146Z,3.34
2019-01-11T00:15:33.740Z,3.41
2019-01-11T00:16:14.305Z,3.32
2019-01-11T00:16:54.875Z,3.41
2019-01-11T00:17:35.447Z,3.29
2019-01-11T00:18:16.004Z,3.36
2019-01-11T00:18:57.378Z,3.37
2019-01-11T00:19:37.933Z,3.36
2019-01-11T00:20:18.501Z,3.28
2019-01-11T00:20:59.097Z,3.32
2019-01-11T00:21:39.669Z,3.41
2019-01-11T00:22:20.221Z,3.34
2019-01-11T00:23:00.779Z,3.32
2019-01-11T00:23:41.336Z,3.31
2019-01-11T00:24:21.884Z,3.34
2019-01-11T00:25:02.442Z,3.32
2019-01-11T00:25:42.995Z,3.29
2019-01-11T00:26:23.539Z,3.34
2019-01-11T00:27:04.085Z,3.36
2019-01-11T00:27:44.643Z,3.28
2019-01-11T00:28:25.188Z,3.37
2019-01-11T00:29:05.782Z,3.41
2019-01-11T00:29:46.347Z,3.37
2019-01-11T00:30:26.907Z,3.36
2019-01-11T00:31:07.482Z,3.31
2019-01-11T00:31:48.037Z,3.25
2019-01-11T00:32:28.598Z,3.32
2019-01-11T00:33:09.140Z,3.36
2019-01-11T00:33:49.705Z,3.29
2019-01-11T00:34:30.256Z,3.36
2019-01-11T00:35:10.819Z,3.29
2019-01-11T00:35:51.624Z,3.29
2019-01-11T00:36:32.204Z,3.36
2019-01-11T00:37:12.754Z,3.34
2019-01-11T00:37:53.301Z,3.34
2019-01-11T00:38:33.872Z,3.36
2019-01-11T00:39:14.444Z,3.36
2019-01-11T00:39:55.010Z,3.31
2019-01-11T00:40:35.592Z,3.32
2019-01-11T00:41:16.141Z,3.32
2019-01-11T00:41:56.715Z,3.37
2019-01-11T00:42:37.283Z,3.31
2019-01-11T00:43:17.859Z,3.34
2019-01-11T00:43:58.420Z,3.41
2019-01-11T00:44:38.969Z,3.29
2019-01-11T00:45:19.540Z,3.37
2019-01-11T00:46:00.107Z,3.28
2019-01-11T00:46:40.670Z,3.36
2019-01-11T00:47:21.218Z,3.32
2019-01-11T00:48:01.774Z,3.29
2019-01-11T00:48:42.338Z,3.4
2019-01-11T00:49:22.886Z,3.26
2019-01-11T00:50:03.442Z,3.37
2019-01-11T00:50:43.992Z,3.36
2019-01-11T00:51:24.579Z,3.26
2019-01-11T00:52:05.156Z,3.31
2019-01-11T00:52:45.718Z,3.28
2019-01-11T00:53:26.290Z,3.28
2019-01-11T00:54:06.839Z,3.23
2019-01-11T00:54:47.382Z,3.26
2019-01-11T00:55:27.941Z,3.23
2019-01-11T00:56:08.494Z,3.34
2019-01-11T00:56:49.053Z,3.31
2019-01-11T00:57:29.602Z,3.25
2019-01-11T00:58:10.201Z,3.25
2019-01-11T00:58:50.761Z,3.28
2019-01-11T00:59:31.340Z,3.32
2019-01-11T01:00:11.890Z,3.32
2019-01-11T01:00:52.454Z,3.36
2019-01-11T01:01:33.001Z,3.36
2019-01-11T01:02:13.558Z,3.36
2019-01-11T01:04:26.413Z,3.37
2019-01-11T01:05:06.978Z,3.23
2019-01-11T01:05:47.526Z,3.23
2019-01-11T01:06:28.082Z,3.25
2019-01-11T01:07:08.638Z,3.25
2019-01-11T01:07:49.186Z,3.29
2019-01-11T01:08:30.557Z,3.25
2019-01-11T01:09:10.295Z,3.18
2019-01-11T01:09:50.850Z,3.23
2019-01-11T01:10:31.418Z,3.18
2019-01-11T01:11:11.967Z,3.16
2019-01-11T01:11:52.597Z,3.1
2019-01-11T01:12:33.146Z,3.11
2019-01-11T01:13:13.699Z,3.05
2019-01-11T01:13:54.257Z,3.1
2019-01-11T01:14:34.813Z,3.04
2019-01-11T01:15:15.376Z,3.1
2019-01-11T01:15:55.924Z,3.05
2019-01-11T01:16:36.472Z,3.11
2019-01-11T01:17:17.038Z,3.05
2019-01-11T01:17:57.579Z,3.08
2019-01-11T01:18:38.134Z,3.14
2019-01-11T01:19:20.047Z,3.1
2019-01-11T01:19:59.229Z,3.11
2019-01-11T01:20:39.781Z,3.14
2019-01-11T01:21:20.323Z,3.21
2019-01-11T01:22:00.879Z,3.18
2019-01-11T01:22:41.463Z,3.11
2019-01-11T01:23:22.010Z,3.1
2019-01-11T01:24:02.562Z,3.19
2019-01-11T01:24:43.115Z,3.19
2019-01-11T01:25:23.680Z,3.18
2019-01-11T01:26:04.219Z,3.14
2019-01-11T01:26:44.849Z,3.13
2019-01-11T01:27:25.334Z,3.1
2019-01-11T01:28:05.889Z,3.16
2019-01-11T01:28:46.441Z,3.11
2019-01-11T01:29:27.005Z,3.21
2019-01-11T01:30:07.573Z,3.25
2019-01-11T01:30:48.153Z,3.19
2019-01-11T01:31:28.692Z,3.18
2019-01-11T01:32:09.267Z,3.08
2019-01-11T01:32:49.817Z,3.13
2019-01-11T01:33:30.375Z,3.26
2019-01-11T01:34:10.928Z,3.14
2019-01-11T01:34:51.476Z,3.28
2019-01-11T01:35:32.094Z,3.14
2019-01-11T01:36:15.771Z,3.18
2019-01-11T01:36:56.351Z,3.23
2019-01-11T01:37:36.896Z,3.26
2019-01-11T01:38:17.451Z,3.23
2019-01-11T01:38:58.009Z,3.16
2019-01-11T01:39:38.547Z,3.23
2019-01-11T01:40:19.112Z,3.19
2019-01-11T01:40:59.676Z,3.13
2019-01-11T01:41:40.279Z,3.18
2019-01-11T01:42:20.865Z,3.21
2019-01-11T01:43:01.425Z,3.18
2019-01-11T01:43:41.981Z,3.08
2019-01-11T01:44:22.527Z,3.1
2019-01-11T01:45:03.094Z,3.11
2019-01-11T01:45:43.654Z,3.11
2019-01-11T01:46:24.208Z,3.08
2019-01-11T01:47:04.767Z,3.05
2019-01-11T01:47:45.329Z,3.05
2019-01-11T01:48:25.869Z,2.98
2019-01-11T01:49:06.428Z,3.08
2019-01-11T01:49:46.966Z,3.07
2019-01-11T01:50:27.527Z,3.1
2019-01-11T01:51:08.130Z,3.08
2019-01-11T01:51:48.668Z,3.07
2019-01-11T01:52:29.338Z,3.08
2019-01-11T01:53:09.899Z,3.03
2019-01-11T01:53:50.445Z,3.03
2019-01-11T01:54:30.999Z,3.08
2019-01-11T01:55:11.562Z,2.98
2019-01-11T01:55:52.160Z,3.04
2019-01-11T01:56:32.703Z,3.03
2019-01-11T01:57:13.259Z,3
2019-01-11T01:57:53.835Z,2.98
2019-01-11T01:58:34.395Z,2.93
2019-01-11T01:59:14.946Z,2.95
2019-01-11T01:59:55.495Z,2.85
2019-01-11T02:00:36.052Z,2.86
2019-01-11T02:01:16.612Z,2.9
2019-01-11T02:01:57.175Z,2.9
2019-01-11T02:02:37.729Z,2.85
2019-01-11T02:03:18.301Z,2.83
2019-01-11T02:03:58.875Z,2.83
2019-01-11T02:04:39.421Z,2.86
2019-01-11T02:05:19.987Z,2.83
2019-01-11T02:06:00.545Z,2.92
2019-01-11T02:06:41.115Z,2.83
2019-01-11T02:07:21.673Z,2.85
2019-01-11T02:08:02.248Z,2.85
2019-01-11T02:08:42.815Z,2.9
2019-01-11T02:09:23.354Z,2.87
2019-01-11T02:10:03.912Z,2.85
2019-01-11T02:10:44.478Z,2.86
2019-01-11T02:11:25.023Z,2.9
2019-01-11T02:12:05.634Z,2.86
2019-01-11T02:12:46.220Z,2.92
2019-01-11T02:13:26.796Z,2.87
2019-01-11T02:14:07.373Z,2.89
2019-01-11T02:14:47.919Z,2.87
2019-01-11T02:15:28.466Z,2.83
2019-01-11T02:16:09.023Z,2.89
2019-01-11T02:16:49.697Z,2.85
2019-01-11T02:17:30.248Z,2.93
2019-01-11T02:18:10.815Z,2.89
2019-01-11T02:18:51.379Z,2.83
2019-01-11T02:19:32.973Z,2.89
2019-01-11T02:20:12.500Z,2.97
2019-01-11T02:20:53.089Z,2.85
2019-01-11T02:21:33.653Z,2.97
2019-01-11T02:22:14.211Z,2.87
2019-01-11T02:22:54.777Z,2.92
2019-01-11T02:23:35.374Z,2.9
2019-01-11T02:24:16.170Z,2.9
2019-01-11T02:24:56.911Z,2.92
2019-01-11T02:25:37.479Z,2.9
2019-01-11T02:26:18.061Z,2.85
2019-01-11T02:26:58.672Z,2.85
2019-01-11T02:27:39.243Z,2.85
2019-01-11T02:28:19.872Z,2.92
2019-01-11T02:29:00.416Z,2.86
2019-01-11T02:29:40.985Z,2.92
2019-01-11T02:30:21.535Z,2.86
2019-01-11T02:31:02.092Z,2.87
2019-01-11T02:31:42.650Z,2.9
2019-01-11T02:32:23.207Z,2.93
2019-01-11T02:33:03.785Z,3
2019-01-11T02:33:44.356Z,2.85
2019-01-11T02:34:24.966Z,2.93
2019-01-11T02:35:05.543Z,2.85
2019-01-11T02:35:46.111Z,2.86
2019-01-11T02:36:26.676Z,2.87
2019-01-11T02:37:07.298Z,2.86
2019-01-11T02:37:47.864Z,2.86
2019-01-11T02:38:28.430Z,2.87
2019-01-11T02:39:08.974Z,2.86
2019-01-11T02:39:49.555Z,2.92
2019-01-11T02:40:30.121Z,2.9
2019-01-11T02:41:10.710Z,2.85
2019-01-11T02:41:51.264Z,2.8
2019-01-11T02:42:31.814Z,2.87
2019-01-11T02:43:12.367Z,2.83
2019-01-11T02:43:52.930Z,2.77
2019-01-11T02:44:33.479Z,2.75
2019-01-11T02:45:14.070Z,2.71
2019-01-11T02:45:54.700Z,2.72
2019-01-11T02:46:35.195Z,2.72
2019-01-11T02:47:15.756Z,2.69
2019-01-11T02:47:56.321Z,2.68
2019-01-11T02:48:36.880Z,2.71
2019-01-11T02:49:17.433Z,2.74
2019-01-11T02:49:58.017Z,2.74
2019-01-11T02:50:38.577Z,2.67
2019-01-11T02:51:19.133Z,2.71
2019-01-11T02:51:59.724Z,2.79
2019-01-11T02:52:40.290Z,2.79
2019-01-11T02:53:20.843Z,2.79
2019-01-11T02:54:01.392Z,2.79
2019-01-11T02:54:41.947Z,2.89
2019-01-11T02:55:22.555Z,2.87
2019-01-11T02:56:03.104Z,2.85
2019-01-11T02:56:43.674Z,2.87
2019-01-11T02:57:24.221Z,2.89
2019-01-11T02:58:04.832Z,2.77
2019-01-11T02:58:45.438Z,2.75
2019-01-11T02:59:26.001Z,2.74
2019-01-11T03:00:06.555Z,2.8
2019-01-11T03:00:47.228Z,2.77
2019-01-11T03:01:27.807Z,2.77
2019-01-11T03:02:08.377Z,2.75
2019-01-11T03:02:48.942Z,2.69
2019-01-11T03:03:29.496Z,2.72
2019-01-11T03:04:10.065Z,2.69
2019-01-11T03:04:50.620Z,2.79
2019-01-11T03:05:31.181Z,2.75
2019-01-11T03:06:11.747Z,2.72
2019-01-11T03:06:52.306Z,2.74
2019-01-11T03:07:32.887Z,2.69
2019-01-11T03:08:13.445Z,2.77
2019-01-11T03:08:54.006Z,2.74
2019-01-11T03:09:34.570Z,2.75
2019-01-11T03:10:15.114Z,2.74
2019-01-11T03:10:55.671Z,2.72
2019-01-11T03:11:36.219Z,2.71
2019-01-11T03:12:16.778Z,2.67
2019-01-11T03:12:57.405Z,2.68
2019-01-11T03:13:37.980Z,2.64
2019-01-11T03:14:18.531Z,2.6
2019-01-11T03:14:59.071Z,2.56
2019-01-11T03:15:39.625Z,2.56
2019-01-11T03:16:20.187Z,2.61
2019-01-11T03:17:00.794Z,2.64
2019-01-11T03:17:41.362Z,2.6
2019-01-11T03:18:21.915Z,2.6
2019-01-11T03:19:02.477Z,2.56
2019-01-11T03:19:47.677Z,2.6
2019-01-11T03:20:23.599Z,2.64
2019-01-11T03:21:04.142Z,2.62
2019-01-11T03:21:44.773Z,2.61
2019-01-11T03:22:25.342Z,2.54
2019-01-11T03:23:05.903Z,2.67
2019-01-11T03:23:46.467Z,2.62
2019-01-11T03:24:27.029Z,2.62
2019-01-11T03:25:07.584Z,2.64
2019-01-11T03:25:48.148Z,2.64
2019-01-11T03:26:28.712Z,2.61
2019-01-11T03:27:09.398Z,2.56
2019-01-11T03:27:49.938Z,2.57
2019-01-11T03:28:30.486Z,2.61
2019-01-11T03:29:11.043Z,2.54
2019-01-11T03:29:51.585Z,2.44
2019-01-11T03:30:32.143Z,2.49
2019-01-11T03:31:12.689Z,2.49
2019-01-11T03:31:53.252Z,2.46
2019-01-11T03:32:33.816Z,2.42
2019-01-11T03:33:14.379Z,2.44
2019-01-11T03:33:55.000Z,2.46
2019-01-11T03:34:35.565Z,2.46
2019-01-11T03:35:16.125Z,2.56
2019-01-11T03:35:56.730Z,2.44
2019-01-11T03:36:37.290Z,2.5
2019-01-11T03:37:17.842Z,2.47
2019-01-11T03:37:58.413Z,2.46
2019-01-11T03:38:38.956Z,2.51
2019-01-11T03:39:19.502Z,2.49
2019-01-11T03:40:00.086Z,2.46
2019-01-11T03:40:40.619Z,2.46
2019-01-11T03:41:21.233Z,2.54
2019-01-11T03:42:01.776Z,2.61
2019-01-11T03:42:42.308Z,2.61
2019-01-11T03:43:22.865Z,2.47
2019-01-11T03:44:03.419Z,2.47
2019-01-11T03:44:43.985Z,2.44
2019-01-11T03:45:24.545Z,2.57
2019-01-11T03:46:05.090Z,2.44
2019-01-11T03:46:45.656Z,2.47
2019-01-11T03:47:26.215Z,2.51
2019-01-11T03:48:06.783Z,2.46
2019-01-11T03:48:47.326Z,2.49
2019-01-11T03:49:27.879Z,2.49
2019-01-11T03:50:08.584Z,2.43
2019-01-11T03:50:49.121Z,2.38
2019-01-11T03:51:29.672Z,2.44
2019-01-11T03:52:10.228Z,2.39
2019-01-11T03:52:50.791Z,2.44
2019-01-11T03:53:31.341Z,2.43
2019-01-11T03:54:11.898Z,2.42
2019-01-11T03:54:52.491Z,2.38
2019-01-11T03:55:33.037Z,2.32
2019-01-11T03:56:13.583Z,2.47
2019-01-11T03:56:54.133Z,2.39
2019-01-11T03:57:34.720Z,2.32
2019-01-11T03:58:15.274Z,2.32
2019-01-11T03:58:55.892Z,2.33
2019-01-11T03:59:36.467Z,2.32
2019-01-11T04:00:16.969Z,2.36
2019-01-11T04:00:57.527Z,2.36
2019-01-11T04:01:38.091Z,2.35
2019-01-11T04:02:18.655Z,2.33
2019-01-11T04:02:59.208Z,2.38
2019-01-11T04:03:39.745Z,2.32
2019-01-11T04:04:20.342Z,2.29
2019-01-11T04:05:00.939Z,2.33
2019-01-11T04:05:41.502Z,2.32
2019-01-11T04:06:22.049Z,2.32
2019-01-11T04:07:02.610Z,2.38
2019-01-11T04:07:43.200Z,2.44
2019-01-11T04:08:23.776Z,2.38
2019-01-11T04:09:04.331Z,2.42
2019-01-11T04:09:44.915Z,2.47
2019-01-11T04:10:25.478Z,2.43
2019-01-11T04:11:06.061Z,2.42
2019-01-11T04:11:46.615Z,2.42
2019-01-11T04:12:27.177Z,2.36
2019-01-11T04:13:07.757Z,2.47
2019-01-11T04:13:48.305Z,2.38
2019-01-11T04:14:28.859Z,2.38
2019-01-11T04:15:09.428Z,2.38
2019-01-11T04:15:49.977Z,2.32
2019-01-11T04:16:30.557Z,2.32
2019-01-11T04:17:11.074Z,2.36
2019-01-11T04:17:51.635Z,2.32
2019-01-11T04:18:32.227Z,2.25
2019-01-11T04:19:12.791Z,2.25
2019-01-11T04:19:53.364Z,2.28
2019-01-11T04:20:33.916Z,2.31
2019-01-11T04:21:14.482Z,2.32
2019-01-11T04:21:55.042Z,2.32
2019-01-11T04:22:35.657Z,2.33
2019-01-11T04:23:16.218Z,2.35
2019-01-11T04:23:56.771Z,2.28
2019-01-11T04:24:37.381Z,2.24
2019-01-11T04:25:17.967Z,2.24
2019-01-11T04:25:58.519Z,2.22
2019-01-11T04:26:39.069Z,2.26
2019-01-11T04:27:19.675Z,2.26
2019-01-11T04:28:00.248Z,2.25
2019-01-11T04:28:40.833Z,2.17
2019-01-11T04:29:21.425Z,2.22
2019-01-11T04:30:01.991Z,2.22
2019-01-11T04:30:42.608Z,2.24
2019-01-11T04:31:23.202Z,2.2
2019-01-11T04:32:03.814Z,2.26
2019-01-11T04:32:44.387Z,2.26
2019-01-11T04:33:24.912Z,2.24
2019-01-11T04:34:05.474Z,2.24
2019-01-11T04:34:46.043Z,2.18
2019-01-11T04:35:26.590Z,2.24
2019-01-11T04:36:07.177Z,2.24
2019-01-11T04:36:47.741Z,2.24
2019-01-11T04:37:28.312Z,2.25
2019-01-11T04:38:08.869Z,2.26
2019-01-11T04:38:49.429Z,2.25
2019-01-11T04:39:29.979Z,2.24
2019-01-11T04:40:10.550Z,2.22
2019-01-11T04:40:51.110Z,2.2
2019-01-11T04:41:31.684Z,2.2
2019-01-11T04:42:12.229Z,2.25
2019-01-11T04:42:52.783Z,2.15
2019-01-11T04:43:33.354Z,2.18
2019-01-11T04:44:13.919Z,2.18
2019-01-11T04:44:54.469Z,2.32
2019-01-11T04:45:35.021Z,2.25
2019-01-11T04:46:15.572Z,2.2
2019-01-11T04:46:56.114Z,2.29
2019-01-11T04:47:36.662Z,2.22
2019-01-11T04:48:17.225Z,2.1
2019-01-11T04:48:57.802Z,2.22
2019-01-11T04:49:38.360Z,2.17
2019-01-11T04:50:18.914Z,2.17
2019-01-11T04:50:59.482Z,2.11
2019-01-11T04:51:40.038Z,2.17
2019-01-11T04:52:20.590Z,2.14
2019-01-11T04:53:01.181Z,2.29
2019-01-11T04:53:41.759Z,2.15
2019-01-11T04:54:22.340Z,2.2
2019-01-11T04:55:02.950Z,2.22
2019-01-11T04:55:43.473Z,2.17
2019-01-11T04:56:24.038Z,2.24
2019-01-11T04:57:04.611Z,2.17
2019-01-11T04:57:45.321Z,2.18
2019-01-11T04:58:25.892Z,2.22
2019-01-11T04:59:06.523Z,2.25
2019-01-11T04:59:47.059Z,2.15
2019-01-11T05:00:27.650Z,2.22
2019-01-11T05:01:08.233Z,2.18
2019-01-11T05:01:48.828Z,2.24
2019-01-11T05:02:29.397Z,2.25
2019-01-11T05:03:09.978Z,2.18
2019-01-11T05:03:50.535Z,2.2
2019-01-11T05:04:31.099Z,2.17
2019-01-11T05:05:11.679Z,2.2
2019-01-11T05:05:52.292Z,2.24
2019-01-11T05:06:32.826Z,2.28
2019-01-11T05:07:13.424Z,2.2
2019-01-11T05:07:53.997Z,2.31
2019-01-11T05:08:34.539Z,2.1
2019-01-11T05:09:15.085Z,2.15
2019-01-11T05:09:55.652Z,2.14
2019-01-11T05:10:36.227Z,2.13
2019-01-11T05:11:16.777Z,2.14
2019-01-11T05:11:57.336Z,2.17
2019-01-11T05:12:37.921Z,1.99
2019-01-11T05:13:18.476Z,2.07
2019-01-11T05:13:59.053Z,1.97
2019-01-11T05:14:39.636Z,2.07
2019-01-11T05:15:20.257Z,2.1
2019-01-11T05:16:00.780Z,2.08
2019-01-11T05:16:41.655Z,2.1
2019-01-11T05:17:22.003Z,2.11
2019-01-11T05:18:02.566Z,2.07
2019-01-11T05:18:43.103Z,2.08
2019-01-11T05:19:23.676Z,2.04
2019-01-11T05:20:04.229Z,1.99
2019-01-11T05:20:44.770Z,2.02
2019-01-11T05:21:25.313Z,2
2019-01-11T05:22:05.897Z,1.92
2019-01-11T05:22:46.459Z,2
2019-01-11T05:23:27.019Z,2.06
2019-01-11T05:24:07.594Z,1.99
2019-01-11T05:24:48.137Z,2.02
2019-01-11T05:25:28.687Z,2
2019-01-11T05:26:09.250Z,1.97
2019-01-11T05:26:49.803Z,1.97
2019-01-11T05:27:30.360Z,2.02
2019-01-11T05:28:10.915Z,1.97
2019-01-11T05:28:51.467Z,2.07
2019-01-11T05:29:32.039Z,1.97
2019-01-11T05:30:12.583Z,1.97
2019-01-11T05:30:53.121Z,2.04
2019-01-11T05:31:33.729Z,2.02
2019-01-11T05:32:14.287Z,1.95
2019-01-11T05:32:54.859Z,1.97
2019-01-11T05:33:35.540Z,2
2019-01-11T05:34:16.163Z,1.97
2019-01-11T05:34:56.715Z,1.99
2019-01-11T05:35:37.272Z,1.92
2019-01-11T05:36:17.838Z,1.94
2019-01-11T05:36:58.388Z,2
2019-01-11T05:37:38.939Z,1.94
2019-01-11T05:38:19.515Z,1.99
2019-01-11T05:39:00.100Z,1.94
2019-01-11T05:39:40.696Z,1.95
2019-01-11T05:40:21.256Z,1.95
2019-01-11T05:41:01.808Z,1.95
2019-01-11T05:41:42.360Z,1.94
2019-01-11T05:42:22.926Z,1.92
2019-01-11T05:43:03.492Z,1.97
2019-01-11T05:43:44.053Z,1.92
2019-01-11T05:44:24.655Z,2
2019-01-11T05:45:05.215Z,2.04
2019-01-11T05:45:45.777Z,1.94
2019-01-11T05:46:26.518Z,2
2019-01-11T05:47:06.914Z,2.04
2019-01-11T05:47:47.496Z,1.97
2019-01-11T05:48:28.041Z,1.99
2019-01-11T05:49:08.600Z,2
2019-01-11T05:49:49.173Z,2.02
2019-01-11T05:50:29.731Z,1.97
2019-01-11T05:51:10.321Z,2
2019-01-11T05:51:50.976Z,2
2019-01-11T05:52:31.543Z,1.95
2019-01-11T05:53:12.110Z,2.02
2019-01-11T05:53:52.658Z,2.04
2019-01-11T05:54:33.212Z,2.07
2019-01-11T05:55:13.766Z,2.06
2019-01-11T05:55:54.315Z,2.04
2019-01-11T05:56:34.878Z,2.07
2019-01-11T05:57:15.467Z,2.14
2019-01-11T05:57:56.033Z,2.02
2019-01-11T05:58:36.597Z,1.97
2019-01-11T05:59:17.162Z,2.07
2019-01-11T05:59:57.735Z,2.11
2019-01-11T06:00:38.301Z,2.08
2019-01-11T06:01:18.862Z,2
2019-01-11T06:01:59.450Z,2.02
2019-01-11T06:02:40.011Z,2.06
2019-01-11T06:03:20.630Z,2.08
2019-01-11T06:04:01.209Z,2.11
2019-01-11T06:04:41.776Z,2.08
2019-01-11T06:05:22.446Z,2.06
2019-01-11T06:06:03.035Z,1.99
2019-01-11T06:06:43.589Z,2.07
2019-01-11T06:07:24.156Z,2
2019-01-11T06:08:04.724Z,1.91
2019-01-11T06:08:45.272Z,2.07
2019-01-11T06:09:25.843Z,2
2019-01-11T06:10:06.407Z,2
2019-01-11T06:10:47.028Z,2
2019-01-11T06:11:27.587Z,1.94
2019-01-11T06:12:08.154Z,2.06
2019-01-11T06:12:48.718Z,1.97
2019-01-11T06:13:30.048Z,2
2019-01-11T06:14:10.676Z,2
2019-01-11T06:14:51.396Z,2
2019-01-11T06:15:32.022Z,1.99
2019-01-11T06:16:12.601Z,2.07
2019-01-11T06:16:53.179Z,1.95
2019-01-11T06:17:33.750Z,1.97
2019-01-11T06:18:14.322Z,2.1
2019-01-11T06:18:54.878Z,2.1
2019-01-11T06:19:35.434Z,2.14
2019-01-11T06:20:16.051Z,2.07
2019-01-11T06:20:56.603Z,2.11
2019-01-11T06:21:37.170Z,2.14
2019-01-11T06:22:17.726Z,2.07
2019-01-11T06:22:58.298Z,2.07
2019-01-11T06:23:38.878Z,2.08
2019-01-11T06:24:19.441Z,2.14
2019-01-11T06:24:59.993Z,2.06
2019-01-11T06:25:40.564Z,2.11
2019-01-11T06:26:21.140Z,2.1
2019-01-11T06:27:01.729Z,2.08
2019-01-11T06:27:42.319Z,2.11
2019-01-11T06:28:22.895Z,2.1
2019-01-11T06:29:03.461Z,2.1
2019-01-11T06:29:44.035Z,2.11
2019-01-11T06:30:24.614Z,2.13
2019-01-11T06:31:05.158Z,2.14
2019-01-11T06:31:45.743Z,2.08
2019-01-11T06:32:26.342Z,2.04
2019-01-11T06:33:06.880Z,2.08
2019-01-11T06:33:47.441Z,2.07
2019-01-11T06:34:27.994Z,2.08
2019-01-11T06:35:08.549Z,2.11
2019-01-11T06:35:49.385Z,2.11
2019-01-11T06:36:29.951Z,2.15
2019-01-11T06:37:10.550Z,2.13
2019-01-11T06:37:51.187Z,2.15
2019-01-11T06:38:31.734Z,2.14
2019-01-11T06:39:12.316Z,2.14
2019-01-11T06:39:52.872Z,2.08
2019-01-11T06:40:33.544Z,2.2
2019-01-11T06:41:14.101Z,2.17
2019-01-11T06:41:54.661Z,2.08
2019-01-11T06:42:35.267Z,2.1
2019-01-11T06:43:15.816Z,2.06
2019-01-11T06:43:56.389Z,2
2019-01-11T06:44:38.974Z,2.11
2019-01-11T06:45:17.520Z,1.99
2019-01-11T06:45:58.081Z,1.99
2019-01-11T06:46:38.656Z,2.08
2019-01-11T06:47:19.219Z,2.1
2019-01-11T06:47:59.795Z,2.1
2019-01-11T06:48:40.374Z,2.1
2019-01-11T06:49:20.912Z,2.08
2019-01-11T06:50:01.467Z,2.06
2019-01-11T06:50:42.024Z,1.97
2019-01-11T06:51:22.602Z,2.11
2019-01-11T06:52:03.135Z,2.06
2019-01-11T06:52:43.689Z,2
2019-01-11T06:53:24.254Z,2.04
2019-01-11T06:54:04.821Z,1.97
2019-01-11T06:54:45.397Z,2.07
2019-01-11T06:55:26.116Z,2.07
2019-01-11T06:56:06.662Z,2.08
2019-01-11T06:56:47.317Z,2.11
2019-01-11T06:57:27.873Z,2.08
2019-01-11T06:58:09.335Z,2.14
2019-01-11T06:58:49.142Z,2.1
2019-01-11T06:59:29.770Z,2.07
2019-01-11T07:00:10.340Z,2.08
2019-01-11T07:00:50.907Z,2.06
2019-01-11T07:01:31.539Z,2.07
2019-01-11T07:02:12.060Z,2.07
2019-01-11T07:02:53.253Z,2.11
2019-01-11T07:03:33.811Z,1.97
2019-01-11T07:04:14.412Z,1.92
2019-01-11T07:04:54.973Z,1.92
2019-01-11T07:05:35.526Z,1.94
2019-01-11T07:06:16.072Z,1.91
2019-01-11T07:06:56.635Z,1.92
2019-01-11T07:07:37.200Z,1.97
2019-01-11T07:08:17.761Z,1.92
2019-01-11T07:08:58.355Z,1.91
2019-01-11T07:09:38.883Z,1.92
2019-01-11T07:10:19.432Z,1.94
2019-01-11T07:10:59.992Z,1.92
2019-01-11T07:11:40.554Z,1.92
2019-01-11T07:12:21.149Z,1.92
2019-01-11T07:13:01.683Z,1.95
2019-01-11T07:13:42.237Z,1.94
2019-01-11T07:14:22.806Z,1.94
2019-01-11T07:15:03.354Z,1.99
2019-01-11T07:15:43.915Z,1.97
2019-01-11T07:16:24.482Z,1.97
2019-01-11T07:17:05.077Z,1.92
2019-01-11T07:17:45.626Z,1.95
2019-01-11T07:18:26.176Z,1.91
2019-01-11T07:19:06.735Z,1.91
2019-01-11T07:19:47.298Z,1.87
2019-01-11T07:20:30.687Z,1.94
2019-01-11T07:21:11.438Z,1.91
2019-01-11T07:21:52.041Z,1.85
2019-01-11T07:22:32.622Z,1.87
2019-01-11T07:23:13.193Z,1.87
2019-01-11T07:23:53.754Z,1.91
2019-01-11T07:24:34.446Z,1.91
2019-01-11T07:25:15.022Z,1.85
2019-01-11T07:25:55.588Z,1.87
2019-01-11T07:26:36.890Z,1.92
2019-01-11T07:27:17.417Z,1.94
2019-01-11T07:27:57.975Z,1.97
2019-01-11T07:28:38.541Z,1.89
2019-01-11T07:29:19.089Z,1.94
2019-01-11T07:29:59.640Z,1.89
2019-01-11T07:30:40.197Z,1.91
2019-01-11T07:31:20.800Z,1.97
2019-01-11T07:32:01.413Z,1.97
2019-01-11T07:32:41.984Z,1.91
2019-01-11T07:33:22.527Z,1.91
2019-01-11T07:34:03.093Z,1.91
2019-01-11T07:34:43.651Z,1.94
2019-01-11T07:35:24.247Z,1.95
2019-01-11T07:36:04.802Z,1.97
2019-01-11T07:36:45.354Z,1.99
2019-01-11T07:37:25.908Z,1.92
2019-01-11T07:38:06.460Z,2.06
2019-01-11T07:38:47.019Z,2.06
2019-01-11T07:39:27.586Z,1.99
2019-01-11T07:40:08.191Z,1.94
2019-01-11T07:40:48.736Z,2
2019-01-11T07:41:29.290Z,2.06
2019-01-11T07:42:09.849Z,2.11
2019-01-11T07:42:50.405Z,2.1
2019-01-11T07:43:30.957Z,2.1
2019-01-11T07:44:11.538Z,2.11
2019-01-11T07:44:52.098Z,1.99
2019-01-11T07:45:32.655Z,1.95
2019-01-11T07:46:13.203Z,2
2019-01-11T07:46:53.774Z,2.07
2019-01-11T07:47:34.335Z,2.07
2019-01-11T07:48:14.880Z,2
2019-01-11T07:48:55.433Z,2.04
2019-01-11T07:49:35.975Z,2.13
2019-01-11T07:50:16.537Z,2.13
2019-01-11T07:50:57.086Z,2.11
2019-01-11T07:51:37.631Z,2.18
2019-01-11T07:52:18.181Z,2.08
2019-01-11T07:52:58.787Z,2.04
2019-01-11T07:53:39.493Z,2.07
2019-01-11T07:54:20.039Z,1.95
2019-01-11T07:55:00.606Z,2.1
2019-01-11T07:55:41.141Z,1.97
2019-01-11T07:56:21.692Z,2
2019-01-11T07:57:02.257Z,2.02
2019-01-11T07:57:42.813Z,1.95
2019-01-11T07:58:23.383Z,2
2019-01-11T07:59:03.944Z,2.13
2019-01-11T07:59:44.499Z,2.07
2019-01-11T08:00:25.094Z,2.1
2019-01-11T08:01:05.677Z,2.06
2019-01-11T08:01:46.239Z,2.08
2019-01-11T08:02:26.833Z,2.02
2019-01-11T08:03:07.391Z,2.06
2019-01-11T08:03:47.982Z,2.08
2019-01-11T08:04:28.531Z,2.06
2019-01-11T08:05:09.102Z,1.97
2019-01-11T08:05:49.817Z,1.99
2019-01-11T08:06:30.483Z,2.06
2019-01-11T08:07:11.157Z,1.99
2019-01-11T08:07:51.753Z,2.04
2019-01-11T08:08:32.315Z,2.06
2019-01-11T08:09:12.851Z,1.92
2019-01-11T08:09:53.419Z,2.04
2019-01-11T08:10:33.990Z,2.07
2019-01-11T08:11:14.830Z,1.95
2019-01-11T08:11:55.451Z,2.04
2019-01-11T08:12:36.347Z,2.06
2019-01-11T08:13:16.925Z,2.08
2019-01-11T08:13:57.487Z,2.11
2019-01-11T08:14:38.068Z,2.1
2019-01-11T08:15:18.896Z,2.1
2019-01-11T08:15:59.456Z,2.15
2019-01-11T08:16:40.081Z,2.04
2019-01-11T08:17:20.604Z,1.99
2019-01-11T08:18:01.250Z,2.1
2019-01-11T08:18:41.855Z,2.08
2019-01-11T08:19:22.479Z,2.13
2019-01-11T08:20:03.110Z,2.14
2019-01-11T08:20:43.698Z,2.1
2019-01-11T08:21:24.344Z,2.11
2019-01-11T08:22:04.916Z,2.22
2019-01-11T08:22:45.495Z,2.13
2019-01-11T08:23:26.218Z,2.14
2019-01-11T08:24:06.912Z,2.14
2019-01-11T08:24:47.370Z,2.1
2019-01-11T08:25:27.941Z,2.15
2019-01-11T08:26:08.540Z,2.1
2019-01-11T08:26:49.323Z,2.07
2019-01-11T08:27:30.219Z,2.13
2019-01-11T08:28:10.807Z,2.11
2019-01-11T08:28:51.387Z,2.1
2019-01-11T08:29:32.471Z,2.13
2019-01-11T08:30:12.929Z,2.14
2019-01-11T08:30:54.379Z,2.02
2019-01-11T08:31:34.934Z,2.1
2019-01-11T08:32:15.478Z,2.06
2019-01-11T08:32:56.074Z,2.07
2019-01-11T08:33:36.653Z,2.15
2019-01-11T08:34:17.248Z,2.13
2019-01-11T08:34:57.808Z,2.04
2019-01-11T08:35:38.372Z,2.11
2019-01-11T08:36:19.510Z,2.24
2019-01-11T08:37:00.107Z,2.39
2019-01-11T08:37:40.661Z,2.71
2019-01-11T08:38:21.233Z,3.04
2019-01-11T08:39:01.779Z,3.23
2019-01-11T08:39:42.365Z,3.55
2019-01-11T08:40:22.885Z,3.78
2019-01-11T08:41:03.464Z,4.01
2019-01-11T08:41:44.045Z,4.17
2019-01-11T08:42:24.597Z,4.49
2019-01-11T08:43:05.167Z,4.6
2019-01-11T08:43:45.741Z,4.71
2019-01-11T08:44:26.340Z,4.87
2019-01-11T08:45:06.927Z,4.99
2019-01-11T08:45:47.521Z,5.26
2019-01-11T08:46:28.035Z,5.3
2019-01-11T08:47:08.601Z,5.46
2019-01-11T08:47:49.151Z,5.39
2019-01-11T08:48:29.693Z,5.28
2019-01-11T08:49:10.253Z,5.17
2019-01-11T08:49:50.843Z,4.99
2019-01-11T08:50:31.394Z,4.71
2019-01-11T08:51:11.954Z,4.59
2019-01-11T08:51:52.732Z,4.4
2019-01-11T08:52:33.274Z,4.24
2019-01-11T08:53:13.840Z,4.12
2019-01-11T08:53:54.397Z,4.05
2019-01-11T08:54:34.964Z,3.84
2019-01-11T08:55:15.502Z,3.81
2019-01-11T08:55:56.077Z,3.76
2019-01-11T08:56:36.669Z,3.6
2019-01-11T08:57:17.224Z,3.6
2019-01-11T08:57:57.771Z,3.53
2019-01-11T08:58:38.343Z,3.51
2019-01-11T08:59:18.926Z,3.48
2019-01-11T08:59:59.507Z,3.44
2019-01-11T09:00:40.045Z,3.25
2019-01-11T09:01:20.607Z,3.28
2019-01-11T09:02:01.165Z,3.16
2019-01-11T09:02:41.739Z,3.16
2019-01-11T09:03:22.334Z,3.16
2019-01-11T09:04:02.881Z,3.13
2019-01-11T09:04:43.437Z,3.05